createdAt,value
2018-10-18T00:00:04.439Z,32.73
2018-10-18T00:00:39.677Z,32.67
2018-10-18T00:01:14.056Z,33.40
2018-10-18T00:01:48.792Z,32.00
2018-10-18T00:02:23.067Z,34.10
2018-10-18T00:02:57.627Z,34.07
2018-10-18T00:03:31.786Z,34.07
2018-10-18T00:04:06.022Z,34.15
2018-10-18T00:04:39.974Z,33.47
2018-10-18T00:05:15.485Z,35.10
2018-10-18T00:05:50.306Z,34.57
2018-10-18T00:06:25.351Z,33.00
2018-10-18T00:07:01.489Z,34.60
2018-10-18T00:07:37.234Z,33.83
2018-10-18T00:08:11.962Z,34.93
2018-10-18T00:08:48.122Z,34.45
2018-10-18T00:09:22.608Z,34.40
2018-10-18T00:09:58.341Z,34.50
2018-10-18T00:10:32.950Z,34.95
2018-10-18T00:11:09.408Z,33.05
2018-10-18T00:11:44.890Z,35.20
2018-10-18T00:12:19.649Z,34.10
2018-10-18T00:12:53.910Z,33.70
2018-10-18T00:13:27.954Z,34.90
2018-10-18T00:14:02.045Z,35.10
2018-10-18T00:14:35.919Z,34.83
2018-10-18T00:15:10.538Z,32.78
2018-10-18T00:15:46.032Z,34.45
2018-10-18T00:16:20.824Z,32.47
2018-10-18T00:16:55.278Z,32.48
2018-10-18T00:17:35.746Z,31.62
2018-10-18T00:18:10.355Z,32.23
2018-10-18T00:18:44.816Z,33.70
2018-10-18T00:19:20.020Z,33.08
2018-10-18T00:19:54.008Z,33.00
2018-10-18T00:20:32.664Z,33.53
2018-10-18T00:21:07.631Z,33.45
2018-10-18T00:21:42.617Z,32.38
2018-10-18T00:22:17.650Z,35.90
2018-10-18T00:22:51.892Z,35.33
2018-10-18T00:23:26.388Z,34.90
2018-10-18T00:24:00.355Z,33.87
2018-10-18T00:24:34.782Z,33.58
2018-10-18T00:25:08.906Z,33.27
2018-10-18T00:25:43.052Z,34.20
2018-10-18T00:26:17.098Z,31.73
2018-10-18T00:26:51.164Z,35.00
2018-10-18T00:27:25.288Z,33.70
2018-10-18T00:27:59.484Z,32.67
2018-10-18T00:28:33.654Z,32.90
2018-10-18T00:29:08.209Z,32.30
2018-10-18T00:29:42.398Z,32.77
2018-10-18T00:30:16.578Z,32.20
2018-10-18T00:30:50.872Z,33.83
2018-10-18T00:31:25.081Z,34.10
2018-10-18T00:31:59.070Z,32.27
2018-10-18T00:32:33.204Z,33.17
2018-10-18T00:33:07.279Z,32.87
2018-10-18T00:33:41.508Z,33.20
2018-10-18T00:34:16.014Z,32.67
2018-10-18T00:34:49.976Z,33.27
2018-10-18T00:35:24.202Z,33.45
2018-10-18T00:36:00.005Z,31.37
2018-10-18T00:36:34.154Z,34.33
2018-10-18T00:37:08.390Z,34.10
2018-10-18T00:37:42.834Z,33.90
2018-10-18T00:38:16.906Z,32.77
2018-10-18T00:38:51.624Z,34.40
2018-10-18T00:39:25.723Z,34.47
2018-10-18T00:39:59.998Z,33.50
2018-10-18T00:40:33.914Z,34.43
2018-10-18T00:41:08.225Z,32.83
2018-10-18T00:41:42.787Z,34.53
2018-10-18T00:42:17.125Z,32.58
2018-10-18T00:42:51.449Z,31.80
2018-10-18T00:43:26.626Z,33.10
2018-10-18T00:44:01.048Z,34.20
2018-10-18T00:44:35.304Z,33.40
2018-10-18T00:45:10.601Z,33.63
2018-10-18T00:45:45.296Z,35.03
2018-10-18T00:46:19.767Z,33.73
2018-10-18T00:46:54.046Z,34.70
2018-10-18T00:47:27.964Z,32.10
2018-10-18T00:48:02.400Z,33.18
2018-10-18T00:48:37.002Z,32.67
2018-10-18T00:49:11.300Z,33.57
2018-10-18T00:49:46.707Z,34.60
2018-10-18T00:50:21.189Z,32.25
2018-10-18T00:50:55.442Z,33.97
2018-10-18T00:51:29.528Z,34.77
2018-10-18T00:52:03.444Z,34.63
2018-10-18T00:52:38.156Z,33.63
2018-10-18T00:53:12.550Z,33.78
2018-10-18T00:53:46.766Z,34.60
2018-10-18T00:54:20.988Z,36.55
2018-10-18T00:54:55.248Z,34.70
2018-10-18T00:55:29.654Z,33.78
2018-10-18T00:56:04.248Z,34.63
2018-10-18T00:56:39.173Z,33.00
2018-10-18T00:57:13.616Z,34.07
2018-10-18T00:57:47.510Z,34.20
2018-10-18T00:58:21.412Z,33.57
2018-10-18T00:58:55.598Z,33.67
2018-10-18T00:59:29.530Z,33.43
2018-10-18T01:00:03.922Z,32.80
2018-10-18T01:00:37.983Z,33.00
2018-10-18T01:01:12.700Z,33.87
2018-10-18T01:01:46.948Z,33.75
2018-10-18T01:02:21.202Z,34.87
2018-10-18T01:02:55.363Z,33.53
2018-10-18T01:03:29.502Z,33.30
2018-10-18T01:04:03.948Z,34.88
2018-10-18T01:04:38.147Z,35.77
2018-10-18T01:05:12.828Z,34.80
2018-10-18T01:05:47.076Z,38.15
2018-10-18T01:06:21.329Z,39.00
2018-10-18T01:06:56.192Z,36.28
2018-10-18T01:07:31.020Z,38.43
2018-10-18T01:08:05.473Z,37.83
2018-10-18T01:08:39.757Z,38.85
2018-10-18T01:09:14.029Z,38.73
2018-10-18T01:09:48.627Z,37.55
2018-10-18T01:10:23.230Z,37.40
2018-10-18T01:10:57.544Z,37.33
2018-10-18T01:11:31.423Z,37.10
2018-10-18T01:12:05.583Z,38.43
2018-10-18T01:12:39.959Z,36.50
2018-10-18T01:13:14.327Z,40.52
2018-10-18T01:13:48.542Z,38.13
2018-10-18T01:14:23.259Z,37.20
2018-10-18T01:14:57.876Z,39.07
2018-10-18T01:15:31.860Z,38.40
2018-10-18T01:16:06.205Z,38.43
2018-10-18T01:16:40.708Z,38.38
2018-10-18T01:17:14.616Z,36.97
2018-10-18T01:17:48.537Z,37.90
2018-10-18T01:18:22.603Z,36.17
2018-10-18T01:18:56.544Z,35.30
2018-10-18T01:19:31.884Z,34.40
2018-10-18T01:20:06.391Z,36.30
2018-10-18T01:20:40.922Z,35.40
2018-10-18T01:21:15.166Z,36.70
2018-10-18T01:21:49.518Z,37.13
2018-10-18T01:22:23.384Z,35.80
2018-10-18T01:22:57.366Z,36.10
2018-10-18T01:24:22.328Z,36.10
2018-10-18T01:24:56.458Z,37.78
2018-10-18T01:25:30.581Z,35.73
2018-10-18T01:26:04.784Z,36.55
2018-10-18T01:26:39.050Z,36.53
2018-10-18T01:27:13.491Z,36.73
2018-10-18T01:27:47.310Z,35.13
2018-10-18T01:28:21.472Z,35.70
2018-10-18T01:28:55.636Z,36.63
2018-10-18T01:29:29.765Z,35.80
2018-10-18T01:30:04.828Z,37.85
2018-10-18T01:30:39.421Z,38.55
2018-10-18T01:31:13.261Z,36.93
2018-10-18T01:31:47.410Z,37.57
2018-10-18T01:32:21.548Z,35.92
2018-10-18T01:32:55.637Z,35.70
2018-10-18T01:33:29.730Z,37.20
2018-10-18T01:34:03.808Z,36.48
2018-10-18T01:34:38.238Z,35.30
2018-10-18T01:35:12.345Z,37.17
2018-10-18T01:35:46.502Z,36.23
2018-10-18T01:36:20.331Z,34.40
2018-10-18T01:36:54.269Z,36.60
2018-10-18T01:37:28.367Z,35.48
2018-10-18T01:38:02.519Z,36.30
2018-10-18T01:38:36.774Z,34.67
2018-10-18T01:39:11.400Z,36.33
2018-10-18T01:39:45.318Z,35.53
2018-10-18T01:40:19.440Z,35.43
2018-10-18T01:40:53.668Z,35.75
2018-10-18T01:41:28.933Z,35.20
2018-10-18T01:42:03.053Z,37.23
2018-10-18T01:42:37.353Z,36.13
2018-10-18T01:43:11.463Z,35.10
2018-10-18T01:43:45.679Z,34.50
2018-10-18T01:44:20.451Z,35.55
2018-10-18T01:44:54.860Z,35.92
2018-10-18T01:45:29.014Z,35.85
2018-10-18T01:46:04.152Z,35.13
2018-10-18T01:46:38.873Z,37.80
2018-10-18T01:47:13.318Z,37.75
2018-10-18T01:47:47.668Z,36.93
2018-10-18T01:48:21.748Z,35.55
2018-10-18T01:48:55.860Z,37.20
2018-10-18T01:49:29.952Z,35.63
2018-10-18T01:50:05.401Z,34.40
2018-10-18T01:50:39.679Z,36.35
2018-10-18T01:51:13.496Z,35.17
2018-10-18T01:51:47.921Z,35.98
2018-10-18T01:52:23.376Z,36.45
2018-10-18T01:52:57.170Z,37.50
2018-10-18T01:53:31.280Z,36.30
2018-10-18T01:54:05.354Z,36.70
2018-10-18T01:54:39.272Z,35.40
2018-10-18T01:55:14.189Z,36.80
2018-10-18T01:55:48.037Z,34.53
2018-10-18T01:56:22.124Z,35.70
2018-10-18T01:56:55.959Z,37.13
2018-10-18T01:57:30.041Z,37.03
2018-10-18T01:58:04.616Z,35.30
2018-10-18T01:58:38.532Z,34.10
2018-10-18T01:59:12.989Z,35.88
2018-10-18T01:59:47.254Z,35.92
2018-10-18T02:00:22.061Z,35.85
2018-10-18T02:00:56.374Z,37.23
2018-10-18T02:01:31.125Z,36.23
2018-10-18T02:02:05.649Z,39.25
2018-10-18T02:02:40.274Z,36.68
2018-10-18T02:03:14.411Z,39.25
2018-10-18T02:03:49.123Z,37.25
2018-10-18T02:04:23.782Z,37.87
2018-10-18T02:04:58.385Z,35.98
2018-10-18T02:05:32.924Z,35.27
2018-10-18T02:06:07.814Z,38.25
2018-10-18T02:06:42.373Z,36.23
2018-10-18T02:07:16.208Z,36.17
2018-10-18T02:07:50.388Z,34.20
2018-10-18T02:08:24.809Z,37.83
2018-10-18T02:08:59.637Z,35.28
2018-10-18T02:09:34.375Z,36.88
2018-10-18T02:10:08.539Z,36.40
2018-10-18T02:10:42.616Z,36.95
2018-10-18T02:11:17.768Z,36.20
2018-10-18T02:11:51.595Z,37.37
2018-10-18T02:12:25.929Z,35.52
2018-10-18T02:14:03.484Z,36.85
2018-10-18T02:14:37.584Z,35.50
2018-10-18T02:15:11.668Z,36.10
2018-10-18T02:15:46.092Z,40.70
2018-10-18T02:16:20.227Z,38.00
2018-10-18T02:16:54.292Z,37.25
2018-10-18T02:17:29.557Z,35.80
2018-10-18T02:18:03.688Z,36.08
2018-10-18T02:18:38.293Z,38.13
2018-10-18T02:19:12.420Z,37.33
2018-10-18T02:19:47.039Z,38.98
2018-10-18T02:20:21.182Z,40.37
2018-10-18T02:20:55.264Z,39.25
2018-10-18T02:21:29.368Z,38.78
2018-10-18T02:22:03.437Z,38.83
2018-10-18T02:22:37.605Z,40.30
2018-10-18T02:23:11.412Z,36.47
2018-10-18T02:23:45.525Z,38.80
2018-10-18T02:24:19.590Z,39.25
2018-10-18T02:24:53.675Z,39.13
2018-10-18T02:25:27.694Z,38.40
2018-10-18T02:26:01.787Z,39.58
2018-10-18T02:26:36.259Z,37.75
2018-10-18T02:27:10.322Z,38.00
2018-10-18T02:27:44.405Z,38.63
2018-10-18T02:28:18.968Z,38.43
2018-10-18T02:28:53.161Z,37.85
2018-10-18T02:29:27.216Z,37.15
2018-10-18T02:30:01.542Z,39.50
2018-10-18T02:30:36.149Z,39.10
2018-10-18T02:31:10.248Z,37.50
2018-10-18T02:31:44.359Z,37.65
2018-10-18T02:32:18.824Z,37.55
2018-10-18T02:32:53.231Z,38.13
2018-10-18T02:33:27.298Z,37.33
2018-10-18T02:34:01.243Z,36.27
2018-10-18T02:34:35.325Z,37.08
2018-10-18T02:35:10.221Z,35.60
2018-10-18T02:35:44.631Z,35.98
2018-10-18T02:36:19.140Z,36.58
2018-10-18T02:36:53.096Z,36.07
2018-10-18T02:37:27.441Z,37.67
2018-10-18T02:38:01.581Z,37.05
2018-10-18T02:38:35.447Z,34.40
2018-10-18T02:39:10.044Z,35.23
2018-10-18T02:39:43.856Z,35.27
2018-10-18T02:40:18.297Z,35.00
2018-10-18T02:40:52.742Z,36.38
2018-10-18T02:41:26.852Z,36.50
2018-10-18T02:42:01.000Z,38.08
2018-10-18T02:42:35.277Z,38.58
2018-10-18T02:43:09.349Z,38.15
2018-10-18T02:43:43.793Z,38.25
2018-10-18T02:44:18.367Z,37.85
2018-10-18T02:44:52.475Z,38.35
2018-10-18T02:45:26.563Z,37.23
2018-10-18T02:46:00.665Z,37.42
2018-10-18T02:46:34.503Z,38.40
2018-10-18T02:47:08.969Z,36.75
2018-10-18T02:47:43.072Z,40.25
2018-10-18T02:48:17.261Z,40.58
2018-10-18T02:48:51.453Z,39.92
2018-10-18T02:49:26.125Z,39.42
2018-10-18T02:50:00.216Z,38.65
2018-10-18T02:50:34.653Z,38.60
2018-10-18T02:51:08.761Z,37.28
2018-10-18T02:51:42.853Z,41.53
2018-10-18T02:52:16.981Z,40.10
2018-10-18T02:52:51.390Z,41.00
2018-10-18T02:53:25.801Z,39.85
2018-10-18T02:53:59.901Z,39.42
2018-10-18T02:54:34.617Z,41.28
2018-10-18T02:55:09.377Z,40.90
2018-10-18T02:55:43.491Z,40.85
2018-10-18T02:56:17.680Z,39.95
2018-10-18T02:56:52.124Z,41.30
2018-10-18T02:57:26.249Z,38.95
2018-10-18T02:58:00.869Z,39.40
2018-10-18T02:58:34.935Z,39.88
2018-10-18T02:59:09.048Z,40.08
2018-10-18T02:59:43.151Z,40.17
2018-10-18T03:00:17.298Z,38.38
2018-10-18T03:00:51.565Z,39.50
2018-10-18T03:01:25.417Z,40.43
2018-10-18T03:01:59.242Z,41.20
2018-10-18T03:02:33.347Z,39.88
2018-10-18T03:03:07.445Z,41.25
2018-10-18T03:03:41.883Z,41.02
2018-10-18T03:04:16.229Z,40.30
2018-10-18T03:04:50.325Z,39.83
2018-10-18T03:05:24.449Z,40.30
2018-10-18T03:05:59.207Z,39.78
2018-10-18T03:06:33.461Z,41.35
2018-10-18T03:07:08.199Z,41.45
2018-10-18T03:07:42.309Z,40.28
2018-10-18T03:08:16.418Z,39.73
2018-10-18T03:08:50.660Z,40.70
2018-10-18T03:09:25.083Z,41.77
2018-10-18T03:09:59.185Z,42.17
2018-10-18T03:10:33.357Z,41.40
2018-10-18T03:11:07.465Z,45.12
2018-10-18T03:11:41.949Z,45.00
2018-10-18T03:12:16.122Z,45.08
2018-10-18T03:12:50.375Z,46.92
2018-10-18T03:13:24.544Z,44.40
2018-10-18T03:13:58.633Z,44.67
2018-10-18T03:14:32.712Z,41.80
2018-10-18T03:15:07.221Z,45.03
2018-10-18T03:15:41.041Z,45.63
2018-10-18T03:16:15.532Z,44.67
2018-10-18T03:16:49.754Z,45.85
2018-10-18T03:17:24.193Z,45.40
2018-10-18T03:17:58.344Z,44.35
2018-10-18T03:18:32.653Z,44.63
2018-10-18T03:19:07.069Z,44.98
2018-10-18T03:19:41.168Z,43.15
2018-10-18T03:20:15.269Z,45.52
2018-10-18T03:20:49.773Z,44.15
2018-10-18T03:21:23.598Z,44.50
2018-10-18T03:21:57.713Z,47.23
2018-10-18T03:22:31.809Z,46.60
2018-10-18T03:23:06.493Z,47.80
2018-10-18T03:23:40.933Z,47.48
2018-10-18T03:24:15.571Z,44.15
2018-10-18T03:24:49.707Z,47.25
2018-10-18T03:25:24.634Z,46.75
2018-10-18T03:25:59.233Z,44.85
2018-10-18T03:26:33.300Z,45.55
2018-10-18T03:27:07.593Z,45.58
2018-10-18T03:27:42.009Z,44.23
2018-10-18T03:28:16.140Z,43.75
2018-10-18T03:28:50.236Z,44.88
2018-10-18T03:29:24.554Z,45.12
2018-10-18T03:29:58.730Z,44.63
2018-10-18T03:30:32.987Z,46.18
2018-10-18T03:31:07.152Z,45.08
2018-10-18T03:31:41.246Z,44.95
2018-10-18T03:32:15.359Z,44.88
2018-10-18T03:32:49.470Z,45.38
2018-10-18T03:33:23.610Z,44.88
2018-10-18T03:33:58.088Z,46.18
2018-10-18T03:34:32.536Z,46.50
2018-10-18T03:35:07.281Z,44.35
2018-10-18T03:35:41.388Z,45.73
2018-10-18T03:36:16.271Z,45.63
2018-10-18T03:36:50.489Z,45.65
2018-10-18T03:37:24.603Z,46.28
2018-10-18T03:37:58.706Z,45.55
2018-10-18T03:38:33.177Z,46.05
2018-10-18T03:39:09.568Z,43.68
2018-10-18T03:39:43.667Z,44.93
2018-10-18T03:40:17.826Z,44.67
2018-10-18T03:40:51.890Z,46.20
2018-10-18T03:41:26.347Z,44.90
2018-10-18T03:42:00.624Z,44.60
2018-10-18T03:42:34.916Z,46.33
2018-10-18T03:43:09.038Z,45.92
2018-10-18T03:43:43.145Z,46.42
2018-10-18T03:44:17.221Z,48.83
2018-10-18T03:44:51.344Z,44.15
2018-10-18T03:45:26.129Z,47.33
2018-10-18T03:46:00.238Z,48.87
2018-10-18T03:46:34.494Z,49.48
2018-10-18T03:47:09.196Z,48.45
2018-10-18T03:47:43.277Z,48.25
2018-10-18T03:48:17.825Z,47.60
2018-10-18T03:48:52.047Z,48.65
2018-10-18T03:49:26.462Z,51.37
2018-10-18T03:50:00.549Z,50.48
2018-10-18T03:50:34.622Z,47.60
2018-10-18T03:51:08.738Z,48.40
2018-10-18T03:51:43.162Z,51.95
2018-10-18T03:52:17.271Z,49.83
2018-10-18T03:52:51.372Z,47.90
2018-10-18T03:53:25.465Z,50.92
2018-10-18T03:53:59.604Z,51.58
2018-10-18T03:54:34.202Z,51.58
2018-10-18T03:55:08.288Z,50.52
2018-10-18T03:55:42.693Z,51.40
2018-10-18T03:56:16.785Z,52.88
2018-10-18T03:56:50.865Z,51.33
2018-10-18T03:57:25.320Z,51.85
2018-10-18T03:57:59.449Z,51.80
2018-10-18T03:58:33.547Z,52.00
2018-10-18T03:59:08.412Z,54.38
2018-10-18T03:59:42.591Z,51.68
2018-10-18T04:00:16.979Z,53.00
2018-10-18T04:00:51.146Z,50.70
2018-10-18T04:01:25.618Z,52.75
2018-10-18T04:01:59.709Z,51.70
2018-10-18T04:02:34.116Z,51.40
2018-10-18T04:03:08.566Z,51.20
2018-10-18T04:03:43.066Z,50.95
2018-10-18T04:04:17.584Z,48.02
2018-10-18T04:04:51.682Z,52.20
2018-10-18T04:05:25.778Z,48.87
2018-10-18T04:05:59.895Z,49.48
2018-10-18T04:06:34.194Z,50.70
2018-10-18T04:07:08.746Z,52.00
2018-10-18T04:07:42.826Z,52.62
2018-10-18T04:08:16.938Z,55.08
2018-10-18T04:08:51.025Z,52.40
2018-10-18T04:09:25.478Z,52.05
2018-10-18T04:09:59.589Z,54.27
2018-10-18T04:10:33.663Z,52.23
2018-10-18T04:11:08.074Z,53.33
2018-10-18T04:11:42.209Z,51.92
2018-10-18T04:12:16.764Z,52.93
2018-10-18T04:12:51.462Z,54.90
2018-10-18T04:13:25.562Z,52.23
2018-10-18T04:13:59.696Z,53.48
2018-10-18T04:14:33.800Z,53.42
2018-10-18T04:15:08.066Z,52.78
2018-10-18T04:15:42.153Z,52.10
2018-10-18T04:16:16.571Z,55.55
2018-10-18T04:16:50.674Z,53.42
2018-10-18T04:17:24.784Z,53.33
2018-10-18T04:17:59.341Z,54.03
2018-10-18T04:18:33.661Z,53.30
2018-10-18T04:19:08.172Z,54.63
2018-10-18T04:19:42.294Z,54.73
2018-10-18T04:20:16.393Z,53.65
2018-10-18T04:20:50.498Z,55.00
2018-10-18T04:21:24.906Z,53.87
2018-10-18T04:21:59.326Z,57.75
2018-10-18T04:22:33.410Z,56.65
2018-10-18T04:23:07.514Z,54.98
2018-10-18T04:23:41.612Z,55.20
2018-10-18T04:24:16.086Z,56.23
2018-10-18T04:24:50.380Z,55.50
2018-10-18T04:25:24.469Z,57.10
2018-10-18T04:25:59.738Z,55.23
2018-10-18T04:26:34.497Z,56.80
2018-10-18T04:27:08.814Z,55.60
2018-10-18T04:27:42.893Z,55.50
2018-10-18T04:28:16.993Z,54.93
2018-10-18T04:28:51.082Z,55.67
2018-10-18T04:29:25.174Z,55.30
2018-10-18T04:29:59.314Z,54.10
2018-10-18T04:30:33.578Z,52.30
2018-10-18T04:31:07.665Z,53.60
2018-10-18T04:31:41.748Z,54.35
2018-10-18T04:32:16.165Z,52.65
2018-10-18T04:32:50.257Z,51.90
2018-10-18T04:33:24.465Z,53.42
2018-10-18T04:33:58.581Z,51.58
2018-10-18T04:34:36.370Z,51.40
2018-10-18T04:35:10.478Z,51.35
2018-10-18T04:35:44.561Z,52.60
2018-10-18T04:36:18.821Z,50.50
2018-10-18T04:36:53.005Z,52.80
2018-10-18T04:37:27.481Z,50.90
2018-10-18T04:38:01.736Z,51.18
2018-10-18T04:38:35.848Z,51.00
2018-10-18T04:39:11.708Z,51.42
2018-10-18T04:39:45.884Z,51.80
2018-10-18T04:40:20.666Z,48.80
2018-10-18T04:40:54.785Z,50.63
2018-10-18T04:41:29.631Z,50.83
2018-10-18T04:42:03.799Z,49.18
2018-10-18T04:42:38.784Z,49.45
2018-10-18T04:43:12.897Z,50.85
2018-10-18T04:43:47.019Z,51.53
2018-10-18T04:44:21.098Z,50.17
2018-10-18T04:44:55.208Z,50.20
2018-10-18T04:45:29.643Z,51.25
2018-10-18T04:46:04.417Z,50.52
2018-10-18T04:46:38.683Z,51.10
2018-10-18T04:47:13.151Z,50.70
2018-10-18T04:47:47.569Z,51.65
2018-10-18T04:48:21.887Z,49.67
2018-10-18T04:48:56.223Z,50.78
2018-10-18T04:49:30.426Z,52.05
2018-10-18T04:50:04.985Z,51.25
2018-10-18T04:50:39.569Z,50.67
2018-10-18T04:51:13.699Z,50.17
2018-10-18T04:51:47.826Z,48.38
2018-10-18T04:52:21.949Z,50.45
2018-10-18T04:53:02.914Z,50.03
2018-10-18T04:53:37.006Z,49.50
2018-10-18T04:54:11.112Z,49.35
2018-10-18T04:54:45.580Z,47.00
2018-10-18T04:55:19.692Z,50.48
2018-10-18T04:55:53.837Z,49.18
2018-10-18T04:56:28.422Z,50.52
2018-10-18T04:57:02.924Z,51.90
2018-10-18T04:57:37.037Z,50.55
2018-10-18T04:58:11.123Z,50.20
2018-10-18T04:58:45.218Z,50.20
2018-10-18T04:59:19.320Z,51.70
2018-10-18T04:59:53.381Z,51.88
2018-10-18T05:00:28.134Z,52.55
2018-10-18T05:01:02.309Z,49.75
2018-10-18T05:01:36.937Z,51.33
2018-10-18T05:02:11.054Z,51.50
2018-10-18T05:02:45.220Z,52.15
2018-10-18T05:03:19.489Z,53.00
2018-10-18T05:03:53.923Z,52.78
2018-10-18T05:04:28.389Z,51.98
2018-10-18T05:05:14.183Z,52.78
2018-10-18T05:05:51.750Z,53.05
2018-10-18T05:06:25.842Z,53.48
2018-10-18T05:06:59.954Z,52.03
2018-10-18T05:07:34.216Z,53.02
2018-10-18T05:08:08.633Z,53.85
2018-10-18T05:08:42.716Z,55.75
2018-10-18T05:09:17.142Z,55.70
2018-10-18T05:09:51.234Z,56.75
2018-10-18T05:10:25.397Z,54.93
2018-10-18T05:10:59.481Z,53.83
2018-10-18T05:11:33.659Z,55.30
2018-10-18T05:12:08.070Z,54.10
2018-10-18T05:12:42.248Z,55.15
2018-10-18T05:13:17.038Z,55.55
2018-10-18T05:13:51.594Z,54.83
2018-10-18T05:14:25.670Z,55.45
2018-10-18T05:15:00.106Z,54.75
2018-10-18T05:15:34.217Z,54.85
2018-10-18T05:16:08.337Z,55.48
2018-10-18T05:16:42.457Z,56.75
2018-10-18T05:17:16.552Z,54.27
2018-10-18T05:17:50.979Z,56.15
2018-10-18T05:18:25.190Z,56.13
2018-10-18T05:18:59.770Z,53.70
2018-10-18T05:19:34.465Z,55.03
2018-10-18T05:20:08.537Z,56.08
2018-10-18T05:20:42.629Z,55.43
2018-10-18T05:21:17.057Z,55.23
2018-10-18T05:21:51.173Z,53.30
2018-10-18T05:22:25.279Z,55.05
2018-10-18T05:22:59.414Z,54.30
2018-10-18T05:23:33.853Z,58.20
2018-10-18T05:24:07.942Z,56.68
2018-10-18T05:24:42.082Z,57.08
2018-10-18T05:25:16.601Z,57.30
2018-10-18T05:25:51.656Z,56.18
2018-10-18T05:26:25.808Z,54.48
2018-10-18T05:26:59.868Z,59.13
2018-10-18T05:27:33.968Z,57.62
2018-10-18T05:28:08.725Z,58.45
2018-10-18T05:28:42.797Z,57.62
2018-10-18T05:29:16.894Z,57.90
2018-10-18T05:29:51.096Z,59.63
2018-10-18T05:30:25.530Z,59.93
2018-10-18T05:30:59.638Z,56.53
2018-10-18T05:31:34.667Z,58.85
2018-10-18T05:32:09.328Z,57.95
2018-10-18T05:32:43.437Z,58.25
2018-10-18T05:33:17.534Z,62.73
2018-10-18T05:33:51.609Z,59.70
2018-10-18T05:34:25.792Z,62.78
2018-10-18T05:35:00.015Z,60.73
2018-10-18T05:35:34.777Z,59.25
2018-10-18T05:36:09.174Z,59.73
2018-10-18T05:36:43.367Z,61.55
2018-10-18T05:37:17.926Z,62.40
2018-10-18T05:37:52.784Z,61.42
2018-10-18T05:38:27.366Z,61.00
2018-10-18T05:39:01.781Z,59.85
2018-10-18T05:39:35.878Z,63.10
2018-10-18T05:40:10.632Z,60.75
2018-10-18T05:40:45.213Z,61.20
2018-10-18T05:41:19.645Z,61.42
2018-10-18T05:41:53.782Z,63.87
2018-10-18T05:42:27.614Z,64.03
2018-10-18T05:43:01.773Z,62.20
2018-10-18T05:43:35.741Z,62.83
2018-10-18T05:44:09.846Z,66.02
2018-10-18T05:44:44.277Z,63.78
2018-10-18T05:45:18.716Z,69.70
2018-10-18T05:45:53.754Z,64.05
2018-10-18T05:46:28.545Z,65.87
2018-10-18T05:47:03.208Z,67.03
2018-10-18T05:47:37.346Z,69.85
2018-10-18T05:48:11.425Z,65.03
2018-10-18T05:48:45.524Z,64.82
2018-10-18T05:49:19.642Z,64.95
2018-10-18T05:49:54.292Z,64.50
2018-10-18T05:50:28.729Z,62.35
2018-10-18T05:51:02.820Z,64.60
2018-10-18T05:51:36.990Z,67.72
2018-10-18T05:52:11.108Z,65.25
2018-10-18T05:52:45.526Z,64.12
2018-10-18T05:53:20.095Z,65.12
2018-10-18T05:53:54.499Z,65.65
2018-10-18T05:54:28.630Z,65.78
2018-10-18T05:55:03.085Z,67.50
2018-10-18T05:55:37.692Z,69.15
2018-10-18T05:56:11.848Z,66.40
2018-10-18T05:56:46.266Z,68.25
2018-10-18T05:57:20.399Z,68.47
2018-10-18T05:57:54.230Z,65.60
2018-10-18T05:58:28.315Z,66.80
2018-10-18T05:59:02.754Z,65.97
2018-10-18T05:59:36.833Z,64.12
2018-10-18T06:00:15.359Z,64.12
2018-10-18T06:00:49.548Z,68.92
2018-10-18T06:01:24.108Z,65.95
2018-10-18T06:01:58.272Z,67.40
2018-10-18T06:02:32.736Z,67.27
2018-10-18T06:03:07.162Z,68.78
2018-10-18T06:03:41.297Z,67.58
2018-10-18T06:04:15.364Z,65.35
2018-10-18T06:04:49.795Z,69.27
2018-10-18T06:05:23.957Z,66.90
2018-10-18T06:05:59.192Z,73.05
2018-10-18T06:06:33.282Z,69.53
2018-10-18T06:07:07.442Z,68.20
2018-10-18T06:07:42.462Z,69.55
2018-10-18T06:08:16.548Z,73.45
2018-10-18T06:08:51.007Z,71.10
2018-10-18T06:09:29.429Z,69.90
2018-10-18T06:10:03.654Z,70.53
2018-10-18T06:10:49.392Z,68.67
2018-10-18T06:11:27.302Z,69.17
2018-10-18T06:12:01.800Z,66.47
2018-10-18T06:12:35.901Z,67.60
2018-10-18T06:13:10.087Z,66.70
2018-10-18T06:13:44.330Z,69.25
2018-10-18T06:14:18.764Z,66.62
2018-10-18T06:14:52.866Z,70.87
2018-10-18T06:15:27.630Z,66.95
2018-10-18T06:16:01.728Z,68.15
2018-10-18T06:16:35.786Z,67.78
2018-10-18T06:17:10.210Z,70.72
2018-10-18T06:17:44.312Z,68.25
2018-10-18T06:18:18.750Z,65.57
2018-10-18T06:18:53.212Z,65.35
2018-10-18T06:19:27.465Z,66.07
2018-10-18T06:20:01.551Z,68.40
2018-10-18T06:20:35.644Z,67.50
2018-10-18T06:21:09.723Z,68.25
2018-10-18T06:21:43.842Z,67.78
2018-10-18T06:22:17.994Z,66.27
2018-10-18T06:22:52.126Z,65.42
2018-10-18T06:23:26.475Z,67.03
2018-10-18T06:24:00.450Z,65.00
2018-10-18T06:24:34.550Z,66.15
2018-10-18T06:25:09.980Z,65.37
2018-10-18T06:25:44.856Z,65.62
2018-10-18T06:26:20.033Z,62.25
2018-10-18T06:26:54.335Z,67.35
2018-10-18T06:27:28.425Z,64.67
2018-10-18T06:28:03.195Z,63.92
2018-10-18T06:28:37.992Z,67.05
2018-10-18T06:29:12.479Z,65.15
2018-10-18T06:29:46.782Z,68.30
2018-10-18T06:30:20.866Z,66.90
2018-10-18T06:30:55.300Z,66.75
2018-10-18T06:31:29.587Z,69.92
2018-10-18T06:32:04.008Z,66.07
2018-10-18T06:32:38.112Z,64.60
2018-10-18T06:33:12.233Z,63.15
2018-10-18T06:33:46.722Z,68.28
2018-10-18T06:34:20.800Z,63.10
2018-10-18T06:34:54.929Z,62.70
2018-10-18T06:35:29.334Z,63.90
2018-10-18T06:36:03.502Z,63.97
2018-10-18T06:36:37.968Z,61.55
2018-10-18T06:37:12.207Z,62.17
2018-10-18T06:37:46.160Z,64.90
2018-10-18T06:38:20.257Z,64.32
2018-10-18T06:38:54.433Z,65.17
2018-10-18T06:39:28.561Z,64.73
2018-10-18T06:40:03.080Z,62.83
2018-10-18T06:40:37.578Z,66.67
2018-10-18T06:41:11.696Z,65.25
2018-10-18T06:41:46.412Z,62.73
2018-10-18T06:42:20.511Z,63.80
2018-10-18T06:42:54.410Z,68.50
2018-10-18T06:43:33.266Z,67.37
2018-10-18T06:44:07.436Z,65.37
2018-10-18T06:44:41.563Z,65.67
2018-10-18T06:45:17.305Z,60.43
2018-10-18T06:45:51.729Z,59.03
2018-10-18T06:46:25.812Z,59.05
2018-10-18T06:47:00.655Z,59.75
2018-10-18T06:47:34.724Z,61.80
2018-10-18T06:48:09.014Z,60.88
2018-10-18T06:48:43.364Z,59.83
2018-10-18T06:49:17.896Z,60.45
2018-10-18T06:49:52.130Z,59.10
2018-10-18T06:50:26.324Z,61.17
2018-10-18T06:51:00.141Z,61.63
2018-10-18T06:51:33.986Z,61.80
2018-10-18T06:52:07.820Z,64.30
2018-10-18T06:52:41.720Z,61.90
2018-10-18T06:53:15.589Z,63.80
2018-10-18T06:53:49.499Z,58.63
2018-10-18T06:54:23.811Z,62.47
2018-10-18T06:54:57.926Z,64.03
2018-10-18T06:55:32.213Z,65.50
2018-10-18T06:56:06.514Z,67.62
2018-10-18T06:56:40.604Z,63.33
2018-10-18T06:57:15.089Z,58.00
2018-10-18T06:57:49.258Z,66.07
2018-10-18T06:58:23.703Z,63.35
2018-10-18T06:58:58.522Z,60.25
2018-10-18T06:59:32.353Z,58.03
2018-10-18T07:00:08.724Z,61.33
2018-10-18T07:00:43.076Z,58.20
2018-10-18T07:01:16.896Z,58.00
2018-10-18T07:01:50.726Z,59.00
2018-10-18T07:02:24.581Z,59.27
2018-10-18T07:02:58.689Z,61.15
2018-10-18T07:03:32.504Z,60.97
2018-10-18T07:04:06.715Z,58.73
2018-10-18T07:04:40.816Z,60.25
2018-10-18T07:05:15.403Z,57.63
2018-10-18T07:05:49.533Z,62.27
2018-10-18T07:06:23.693Z,58.63
2018-10-18T07:06:58.004Z,62.47
2018-10-18T07:07:32.176Z,57.33
2018-10-18T07:08:06.277Z,59.38
2018-10-18T07:08:40.776Z,58.60
2018-10-18T07:09:14.621Z,59.37
2018-10-18T07:09:48.472Z,59.40
2018-10-18T07:10:22.609Z,57.10
2018-10-18T07:10:56.999Z,59.07
2018-10-18T07:11:31.273Z,55.13
2018-10-18T07:12:06.270Z,58.50
2018-10-18T07:12:40.932Z,61.43
2018-10-18T07:13:14.836Z,57.13
2018-10-18T07:13:48.714Z,58.40
2018-10-18T07:14:22.544Z,58.43
2018-10-18T07:14:56.436Z,60.03
2018-10-18T07:15:30.284Z,57.80
2018-10-18T07:16:04.566Z,62.73
2018-10-18T07:16:38.392Z,58.27
2018-10-18T07:17:12.201Z,56.70
2018-10-18T07:17:46.093Z,59.33
2018-10-18T07:18:20.118Z,58.13
2018-10-18T07:18:54.626Z,58.23
2018-10-18T07:19:28.497Z,58.23
2018-10-18T07:20:02.608Z,57.30
2018-10-18T07:20:36.423Z,59.43
2018-10-18T07:21:10.879Z,57.05
2018-10-18T07:21:44.882Z,56.90
2018-10-18T07:22:18.697Z,58.27
2018-10-18T07:22:52.524Z,56.73
2018-10-18T07:23:26.672Z,60.20
2018-10-18T07:24:00.602Z,58.37
2018-10-18T07:24:34.924Z,60.47